sensor_id;sensor_type;location;lat;lon;timestamp;temperature;humidity
6281;DHT22;3173;48.204;11.612;2022-10-16T10:03:44;38.80;54.40
6281;DHT22;3173;48.204;11.612;2022-10-16T10:06:24;38.70;55.00
6281;DHT22;3173;48.204;11.612;2022-10-16T10:11:46;39.00;56.90
6281;DHT22;3173;48.204;11.612;2022-10-16T10:16:46;37.50;56.90
6281;DHT22;3173;48.204;11.612;2022-10-16T10:19:18;37.80;56.50
6281;DHT22;3173;48.204;11.612;2022-10-16T10:21:44;38.60;56.30
6281;DHT22;3173;48.204;11.612;2022-10-16T10:24:11;37.70;56.30
6281;DHT22;3173;48.204;11.612;2022-10-16T10:26:38;37.40;57.30
6281;DHT22;3173;48.204;11.612;2022-10-16T10:32:08;38.40;55.30
6281;DHT22;3173;48.204;11.612;2022-10-16T10:38:06;38.50;55.40
6281;DHT22;3173;48.204;11.612;2022-10-16T10:40:51;38.40;54.80
6281;DHT22;3173;48.204;11.612;2022-10-16T10:46:20;41.10;54.70
6281;DHT22;3173;48.204;11.612;2022-10-16T10:48:58;40.80;53.20
6281;DHT22;3173;48.204;11.612;2022-10-16T10:54:14;41.40;52.50
6281;DHT22;3173;48.204;11.612;2022-10-16T10:57:02;41.80;53.80
6281;DHT22;3173;48.204;11.612;2022-10-16T11:02:40;40.10;53.10
6281;DHT22;3173;48.204;11.612;2022-10-16T11:05:42;41.40;52.30
6281;DHT22;3173;48.204;11.612;2022-10-16T11:08:17;39.40;52.00
6281;DHT22;3173;48.204;11.612;2022-10-16T11:13:34;40.20;51.40
6281;DHT22;3173;48.204;11.612;2022-10-16T11:16:17;39.80;51.40
6281;DHT22;3173;48.204;11.612;2022-10-16T11:19:26;38.70;52.10
6281;DHT22;3173;48.204;11.612;2022-10-16T11:24:53;41.50;50.90
6281;DHT22;3173;48.204;11.612;2022-10-16T11:27:28;40.60;49.10
6281;DHT22;3173;48.204;11.612;2022-10-16T11:29:59;40.80;50.10
6281;DHT22;3173;48.204;11.612;2022-10-16T11:32:44;39.80;48.90
6281;DHT22;3173;48.204;11.612;2022-10-16T11:35:30;39.10;50.10
6281;DHT22;3173;48.204;11.612;2022-10-16T11:37:58;40.70;48.00
6281;DHT22;3173;48.204;11.612;2022-10-16T11:40:34;39.80;48.80
6281;DHT22;3173;48.204;11.612;2022-10-16T11:46:19;40.60;48.60
6281;DHT22;3173;48.204;11.612;2022-10-16T11:48:51;40.10;48.50
6281;DHT22;3173;48.204;11.612;2022-10-16T11:54:08;37.00;52.40
6281;DHT22;3173;48.204;11.612;2022-10-16T11:56:40;37.70;51.90
6281;DHT22;3173;48.204;11.612;2022-10-16T12:01:47;32.90;57.70
6281;DHT22;3173;48.204;11.612;2022-10-16T12:06:57;32.90;58.10
6281;DHT22;3173;48.204;11.612;2022-10-16T12:09:29;33.00;58.20
6281;DHT22;3173;48.204;11.612;2022-10-16T12:11:56;33.20;59.30
6281;DHT22;3173;48.204;11.612;2022-10-16T12:14:41;33.20;58.70
6281;DHT22;3173;48.204;11.612;2022-10-16T12:17:26;33.60;61.00
6281;DHT22;3173;48.204;11.612;2022-10-16T12:23:03;32.40;59.80
6281;DHT22;3173;48.204;11.612;2022-10-16T12:25:31;32.60;61.40
6281;DHT22;3173;48.204;11.612;2022-10-16T12:30:28;32.60;61.30
6281;DHT22;3173;48.204;11.612;2022-10-16T12:33:03;32.90;60.20
6281;DHT22;3173;48.204;11.612;2022-10-16T12:35:33;33.20;60.90
6281;DHT22;3173;48.204;11.612;2022-10-16T12:40:42;32.60;60.70
6281;DHT22;3173;48.204;11.612;2022-10-16T12:43:35;32.80;62.60
6281;DHT22;3173;48.204;11.612;2022-10-16T12:46:05;32.50;63.40
6281;DHT22;3173;48.204;11.612;2022-10-16T12:48:31;32.30;64.40
6281;DHT22;3173;48.204;11.612;2022-10-16T12:50:57;32.20;63.70
6281;DHT22;3173;48.204;11.612;2022-10-16T12:53:26;32.40;64.10
6281;DHT22;3173;48.204;11.612;2022-10-16T12:56:09;32.70;65.20
6281;DHT22;3173;48.204;11.612;2022-10-16T12:58:51;33.10;64.70
6281;DHT22;3173;48.204;11.612;2022-10-16T13:01:29;32.50;66.00
6281;DHT22;3173;48.204;11.612;2022-10-16T13:09:55;31.60;64.40
6281;DHT22;3173;48.204;11.612;2022-10-16T13:18:18;31.00;66.80
6281;DHT22;3173;48.204;11.612;2022-10-16T13:23:32;31.60;69.30
6281;DHT22;3173;48.204;11.612;2022-10-16T13:26:29;30.70;72.50
6281;DHT22;3173;48.204;11.612;2022-10-16T13:29:00;31.50;70.50
6281;DHT22;3173;48.204;11.612;2022-10-16T13:31:26;31.10;70.50
6281;DHT22;3173;48.204;11.612;2022-10-16T13:33:58;30.60;70.10
6281;DHT22;3173;48.204;11.612;2022-10-16T13:36:42;30.70;71.60
6281;DHT22;3173;48.204;11.612;2022-10-16T13:39:26;31.30;71.20
6281;DHT22;3173;48.204;11.612;2022-10-16T13:42:04;30.90;69.30
6281;DHT22;3173;48.204;11.612;2022-10-16T13:44:50;30.10;70.50
6281;DHT22;3173;48.204;11.612;2022-10-16T13:47:25;30.30;71.30
6281;DHT22;3173;48.204;11.612;2022-10-16T13:52:25;28.90;73.90
6281;DHT22;3173;48.204;11.612;2022-10-16T13:54:51;28.90;76.30
6281;DHT22;3173;48.204;11.612;2022-10-16T13:57:17;28.50;74.70
6281;DHT22;3173;48.204;11.612;2022-10-16T13:59:43;28.50;76.40
6281;DHT22;3173;48.204;11.612;2022-10-16T14:02:20;28.80;78.30
6281;DHT22;3173;48.204;11.612;2022-10-16T14:04:47;28.30;77.70
6281;DHT22;3173;48.204;11.612;2022-10-16T14:07:19;28.50;77.20
6281;DHT22;3173;48.204;11.612;2022-10-16T14:09:49;28.30;77.10
6281;DHT22;3173;48.204;11.612;2022-10-16T14:12:15;28.90;79.30
6281;DHT22;3173;48.204;11.612;2022-10-16T14:14:43;28.70;77.50
6281;DHT22;3173;48.204;11.612;2022-10-16T14:17:20;28.00;79.50
6281;DHT22;3173;48.204;11.612;2022-10-16T14:19:49;28.30;78.90
6281;DHT22;3173;48.204;11.612;2022-10-16T14:24:59;27.70;80.60
6281;DHT22;3173;48.204;11.612;2022-10-16T14:27:32;27.60;80.40
6281;DHT22;3173;48.204;11.612;2022-10-16T14:30:20;27.50;80.70
6281;DHT22;3173;48.204;11.612;2022-10-16T14:35:25;27.70;82.80
6281;DHT22;3173;48.204;11.612;2022-10-16T14:37:52;27.10;82.40
6281;DHT22;3173;48.204;11.612;2022-10-16T14:40:19;27.00;84.80
6281;DHT22;3173;48.204;11.612;2022-10-16T14:42:46;26.80;87.20
6281;DHT22;3173;48.204;11.612;2022-10-16T14:45:11;26.60;89.10
6281;DHT22;3173;48.204;11.612;2022-10-16T14:47:48;26.50;90.00
6281;DHT22;3173;48.204;11.612;2022-10-16T14:50:14;26.20;90.60
6281;DHT22;3173;48.204;11.612;2022-10-16T14:52:40;26.00;91.60
6281;DHT22;3173;48.204;11.612;2022-10-16T14:55:07;25.80;92.70
6281;DHT22;3173;48.204;11.612;2022-10-16T14:57:34;25.50;93.20
6281;DHT22;3173;48.204;11.612;2022-10-16T15:00:02;25.10;93.90
6281;DHT22;3173;48.204;11.612;2022-10-16T15:02:31;24.90;94.30
6281;DHT22;3173;48.204;11.612;2022-10-16T15:04:57;24.70;94.70
6281;DHT22;3173;48.204;11.612;2022-10-16T15:07:23;24.50;95.10
6281;DHT22;3173;48.204;11.612;2022-10-16T15:09:49;24.40;95.60
6281;DHT22;3173;48.204;11.612;2022-10-16T15:12:17;24.10;95.90
6281;DHT22;3173;48.204;11.612;2022-10-16T15:14:43;24.10;96.30
6281;DHT22;3173;48.204;11.612;2022-10-16T15:17:10;23.90;96.90
6281;DHT22;3173;48.204;11.612;2022-10-16T15:19:36;23.90;98.10
6281;DHT22;3173;48.204;11.612;2022-10-16T15:22:02;23.90;98.70
6281;DHT22;3173;48.204;11.612;2022-10-16T15:24:27;23.80;99.40
6281;DHT22;3173;48.204;11.612;2022-10-16T15:26:53;23.70;99.90
6281;DHT22;3173;48.204;11.612;2022-10-16T15:29:18;23.50;99.90
6281;DHT22;3173;48.204;11.612;2022-10-16T15:31:44;23.20;99.90
6281;DHT22;3173;48.204;11.612;2022-10-16T15:34:12;23.40;99.90
6281;DHT22;3173;48.204;11.612;2022-10-16T15:36:39;23.20;99.90
6281;DHT22;3173;48.204;11.612;2022-10-16T15:39:18;23.20;99.90
6281;DHT22;3173;48.204;11.612;2022-10-16T15:41:45;23.10;99.90
6281;DHT22;3173;48.204;11.612;2022-10-16T15:44:16;23.00;99.90
6281;DHT22;3173;48.204;11.612;2022-10-16T15:46:41;22.90;99.90
6281;DHT22;3173;48.204;11.612;2022-10-16T15:49:08;22.80;99.90
6281;DHT22;3173;48.204;11.612;2022-10-16T15:51:38;22.60;99.90
6281;DHT22;3173;48.204;11.612;2022-10-16T15:54:04;22.50;99.90
6281;DHT22;3173;48.204;11.612;2022-10-16T15:56:29;22.40;99.90
